Time;durP1;ratioP1;P1;durP2;ratioP2;P2;SDS_P1;SDS_P2;PMS_P1;PMS_P2;Temp;Humidity;BMP_temperature;BMP_pressure;BME280_temperature;BME280_humidity;BME280_pressure;Samples;Min_cycle;Max_cycle;Signal;HPM_P1;HPM_P2
2022/07/14 00:00:25;;;;;;;5.72;5.40;;;;;;;19.65;84.20;101509.25;6029783;23;20405;-70
2022/07/14 00:02:51;;;;;;;6.50;6.20;;;;;;;19.60;85.05;101498.94;6021576;23;20042;-70
2022/07/14 00:05:18;;;;;;;5.60;5.30;;;;;;;19.28;86.79;101507.63;6025228;23;20025;-70
2022/07/14 00:07:44;;;;;;;5.70;5.40;;;;;;;18.93;88.76;101422.50;6024006;23;20127;-70
2022/07/14 00:10:11;;;;;;;5.60;5.30;;;;;;;19.48;90.15;101506.09;6021541;23;20086;-69
2022/07/14 00:12:37;;;;;;;5.50;5.30;;;;;;;19.06;92.86;101443.69;6024909;23;20108;-70
2022/07/14 00:15:04;;;;;;;6.97;6.65;;;;;;;18.36;92.34;101367.38;5994734;23;20839;-70
2022/07/14 00:17:31;;;;;;;5.75;5.45;;;;;;;19.26;93.18;101506.91;6025358;23;20025;-69
2022/07/14 00:19:57;;;;;;;7.25;6.88;;;;;;;19.02;94.13;101461.69;6021501;23;20121;-70
2022/07/14 00:22:24;;;;;;;5.53;5.32;;;;;;;19.14;94.83;101510.47;6018756;23;20142;-69
2022/07/14 00:24:53;;;;;;;6.80;6.50;;;;;;;19.11;94.60;101495.59;6029417;23;20025;-69
2022/07/14 00:27:19;;;;;;;5.88;5.57;;;;;;;19.06;94.98;101553.63;6021762;23;20041;-69
2022/07/14 00:29:46;;;;;;;5.82;5.47;;;;;;;19.10;94.95;101499.22;6029121;23;20027;-70
2022/07/14 00:32:12;;;;;;;5.75;5.45;;;;;;;18.77;97.77;101499.06;6026480;23;20037;-70
2022/07/14 00:34:40;;;;;;;5.90;5.60;;;;;;;19.01;97.86;101512.38;6031774;23;20089;-70
2022/07/14 00:37:06;;;;;;;6.68;5.28;;;;;;;18.51;98.75;101440.69;6025953;23;20247;-70
2022/07/14 00:39:54;;;;;;;11.65;6.63;;;;;;;18.90;98.83;101489.22;6029679;23;20019;-70
2022/07/14 00:42:28;;;;;;;5.75;5.40;;;;;;;18.84;100.00;101495.88;6032394;23;20034;-70
2022/07/14 00:44:56;;;;;;;6.82;6.53;;;;;;;18.24;100.00;101401.88;6021923;23;20312;-68
2022/07/14 00:47:22;;;;;;;5.45;5.18;;;;;;;18.72;100.00;101486.94;6025229;23;20022;-70
2022/07/14 00:49:53;;;;;;;5.82;5.55;;;;;;;18.60;100.00;101479.00;6024587;23;20423;-71
2022/07/14 00:52:21;;;;;;;5.90;5.60;;;;;;;18.60;100.00;101461.28;6009995;23;20040;-70
2022/07/14 00:54:48;;;;;;;5.43;5.22;;;;;;;18.40;100.00;101469.84;6019889;23;20027;-71
2022/07/14 00:57:15;;;;;;;5.15;4.95;;;;;;;18.62;100.00;101456.69;6019232;23;20084;-70
2022/07/14 00:59:41;;;;;;;5.70;5.40;;;;;;;18.29;100.00;101446.72;6029602;23;20098;-70
2022/07/14 01:02:08;;;;;;;5.38;5.18;;;;;;;18.40;100.00;101448.56;6016435;23;20041;-70
2022/07/14 01:04:35;;;;;;;5.88;5.53;;;;;;;18.53;100.00;101479.47;6023351;23;20433;-70
2022/07/14 01:07:02;;;;;;;6.72;6.43;;;;;;;18.30;100.00;101438.63;6022938;23;20018;-70
2022/07/14 01:09:28;;;;;;;5.40;5.20;;;;;;;18.04;100.00;101390.06;5995641;23;20098;-70
2022/07/14 01:11:55;;;;;;;7.32;7.03;;;;;;;18.37;100.00;101457.63;6018936;23;20007;-69
2022/07/14 01:14:22;;;;;;;5.40;5.20;;;;;;;18.29;100.00;101436.94;6025587;23;20039;-70
2022/07/14 01:16:54;;;;;;;5.90;5.60;;;;;;;18.61;100.00;101484.22;6018566;23;20528;-71
2022/07/14 01:19:22;;;;;;;5.35;5.07;;;;;;;18.61;100.00;101494.00;6021695;23;20039;-70
2022/07/14 01:21:51;;;;;;;6.20;5.90;;;;;;;18.61;100.00;101505.50;6010018;23;20011;-70
2022/07/14 01:24:17;;;;;;;5.47;5.18;;;;;;;18.60;100.00;101468.38;6009766;23;20337;-70
2022/07/14 01:26:47;;;;;;;5.75;5.47;;;;;;;18.44;100.00;101490.78;6026885;23;20086;-70
2022/07/14 01:29:13;;;;;;;5.57;5.28;;;;;;;18.43;100.00;101517.47;6029506;23;20098;-70
2022/07/14 01:31:40;;;;;;;5.57;5.28;;;;;;;18.40;100.00;101443.25;6027074;23;20048;-70
2022/07/14 01:34:06;;;;;;;6.75;6.45;;;;;;;18.31;100.00;101450.94;6048989;23;20234;-70
2022/07/14 01:36:33;;;;;;;5.75;5.50;;;;;;;18.47;100.00;101469.28;6017838;23;20386;-70
2022/07/14 01:39:00;;;;;;;6.78;6.47;;;;;;;18.46;100.00;101486.22;6027755;23;20085;-70
2022/07/14 01:41:27;;;;;;;5.57;5.28;;;;;;;18.36;100.00;101500.25;6019565;23;20047;-70
2022/07/14 01:43:54;;;;;;;7.38;6.97;;;;;;;18.29;100.00;101497.19;5998029;23;20035;-70
2022/07/14 01:46:21;;;;;;;5.68;5.43;;;;;;;18.31;100.00;101488.16;6027661;23;20015;-70
2022/07/14 01:48:47;;;;;;;5.85;5.55;;;;;;;18.36;100.00;101502.91;5992685;23;20023;-71
2022/07/14 01:51:14;;;;;;;5.60;5.30;;;;;;;18.31;100.00;101500.59;6031130;23;20208;-69
2022/07/14 01:53:43;;;;;;;5.45;5.25;;;;;;;18.36;100.00;101509.06;6017524;23;20054;-70
2022/07/14 01:56:11;;;;;;;5.80;5.50;;;;;;;18.33;100.00;101504.84;6021470;23;20022;-70
2022/07/14 01:58:38;;;;;;;5.32;5.13;;;;;;;18.34;100.00;101511.00;6038791;23;20089;-70
2022/07/14 02:01:39;;;;;;;6.80;6.50;;;;;;;18.28;100.00;101504.34;6027993;23;20031;-70
2022/07/14 02:03:57;;;;;;;7.25;6.95;;;;;;;18.28;100.00;101479.53;6023923;23;20031;-69
2022/07/14 02:06:24;;;;;;;5.38;5.13;;;;;;;18.30;100.00;101504.19;6025566;23;20417;-70
2022/07/14 02:08:50;;;;;;;5.22;5.03;;;;;;;18.21;100.00;101496.91;6026836;23;20017;-70
2022/07/14 02:14:03;;;;;;;5.68;5.38;;;;;;;18.18;100.00;101458.13;6024986;23;20065;-70
2022/07/14 02:16:30;;;;;;;5.60;5.30;;;;;;;17.91;100.00;101445.00;6032245;23;20149;-70
2022/07/14 02:18:58;;;;;;;6.88;6.57;;;;;;;18.22;100.00;101474.69;6022778;23;20030;-70
2022/07/14 02:21:25;;;;;;;5.57;5.28;;;;;;;18.09;100.00;101445.50;6016957;23;20013;-70
2022/07/14 02:23:52;;;;;;;7.30;7.00;;;;;;;17.90;100.00;101428.25;6002948;23;20238;-70
2022/07/14 02:26:19;;;;;;;5.28;5.07;;;;;;;17.90;100.00;101424.72;6018653;23;20359;-70
2022/07/14 02:28:45;;;;;;;5.60;5.30;;;;;;;17.40;100.00;101353.03;6002756;23;20086;-70
2022/07/14 02:31:14;;;;;;;5.10;4.90;;;;;;;17.90;100.00;101438.84;6021996;23;20023;-68
2022/07/14 02:33:40;;;;;;;5.15;4.95;;;;;;;17.89;100.00;101454.91;6032281;23;20031;-71
2022/07/14 02:36:07;;;;;;;5.35;5.13;;;;;;;17.76;100.00;101407.09;6015401;23;20114;-71
2022/07/14 02:38:34;;;;;;;5.45;5.20;;;;;;;17.94;100.00;101485.47;5993486;23;20067;-70
2022/07/14 02:41:01;;;;;;;6.78;6.47;;;;;;;17.91;100.00;101458.28;6004427;23;20023;-69
2022/07/14 02:43:27;;;;;;;5.32;5.13;;;;;;;17.77;100.00;101407.94;6028769;23;20077;-69
2022/07/14 02:45:54;;;;;;;7.63;7.22;;;;;;;17.44;100.00;101444.72;6028488;23;20518;-68
2022/07/14 02:48:20;;;;;;;5.75;5.45;;;;;;;17.69;100.00;101448.31;6028705;23;20011;-69
2022/07/14 02:50:47;;;;;;;5.80;5.50;;;;;;;17.63;100.00;101443.44;6014088;23;20047;-68
2022/07/14 02:53:13;;;;;;;5.32;5.13;;;;;;;17.06;100.00;101365.97;6021196;23;20164;-69
2022/07/14 02:55:40;;;;;;;5.22;5.03;;;;;;;17.02;100.00;101360.97;6023606;23;20090;-69
2022/07/14 02:58:06;;;;;;;5.40;5.20;;;;;;;17.61;100.00;101450.66;6023424;23;20082;-69
2022/07/14 03:00:33;;;;;;;5.20;5.00;;;;;;;17.62;100.00;101455.84;6031737;23;20115;-69
2022/07/14 03:03:01;;;;;;;6.97;6.65;;;;;;;17.55;100.00;101449.25;5991739;23;20090;-69
2022/07/14 03:05:27;;;;;;;5.25;5.05;;;;;;;17.47;100.00;101494.91;6019118;23;20402;-70
2022/07/14 03:07:55;;;;;;;6.93;6.63;;;;;;;17.30;100.00;101415.66;6019480;23;20026;-70
2022/07/14 03:10:21;;;;;;;5.13;4.93;;;;;;;17.40;100.00;101439.72;6017841;23;20452;-70
2022/07/14 03:12:48;;;;;;;5.25;5.05;;;;;;;16.29;100.00;101280.19;6030915;23;20062;-70
2022/07/14 03:15:14;;;;;;;5.25;5.05;;;;;;;17.22;100.00;101455.09;6019237;23;20288;-69
2022/07/14 03:17:41;;;;;;;5.38;5.13;;;;;;;17.21;100.00;101451.59;6030676;23;20046;-70
2022/07/14 03:20:08;;;;;;;5.88;5.57;;;;;;;17.21;100.00;101437.47;6021563;23;20241;-69
2022/07/14 03:22:34;;;;;;;5.43;5.18;;;;;;;17.15;100.00;101444.88;6017415;23;20434;-69
2022/07/14 03:25:01;;;;;;;6.72;6.43;;;;;;;17.14;100.00;101435.25;6029436;23;20082;-69
2022/07/14 03:27:27;;;;;;;5.10;4.90;;;;;;;17.13;100.00;101446.78;6024172;23;20015;-70
2022/07/14 03:29:54;;;;;;;7.60;7.20;;;;;;;16.85;100.00;101389.50;6025692;23;20015;-69
2022/07/14 03:32:20;;;;;;;5.43;5.22;;;;;;;16.87;100.00;101387.56;6025612;23;20011;-69
2022/07/14 03:34:49;;;;;;;5.78;5.32;;;;;;;17.19;100.00;101526.94;6022579;23;20102;-69
2022/07/14 03:37:15;;;;;;;5.20;5.00;;;;;;;17.14;100.00;101422.00;5998898;23;20030;-69
2022/07/14 03:39:42;;;;;;;5.60;5.32;;;;;;;17.20;100.00;101427.81;6019935;23;20018;-70
2022/07/14 03:42:08;;;;;;;5.30;5.10;;;;;;;17.03;100.00;101427.16;6035300;23;20788;-70
2022/07/14 03:44:34;;;;;;;5.55;5.25;;;;;;;17.22;100.00;101410.84;6018542;23;20274;-71
2022/07/14 03:47:01;;;;;;;6.72;6.43;;;;;;;17.24;100.00;101483.22;5994212;23;20023;-71
2022/07/14 03:49:27;;;;;;;5.43;5.20;;;;;;;17.26;100.00;101422.97;6028151;23;20102;-71
2022/07/14 03:51:54;;;;;;;6.55;6.25;;;;;;;17.13;100.00;101425.59;6043376;23;20417;-70
2022/07/14 03:54:20;;;;;;;5.20;5.00;;;;;;;17.08;100.00;101421.56;6007310;23;20031;-71
2022/07/14 03:56:47;;;;;;;5.18;4.97;;;;;;;17.23;100.00;101436.41;6050226;23;20006;-71
2022/07/14 03:59:13;;;;;;;5.13;4.93;;;;;;;17.26;100.00;101430.91;6020895;23;20040;-71
2022/07/14 04:01:40;;;;;;;5.05;4.85;;;;;;;17.28;100.00;101429.00;6029369;23;20059;-71
2022/07/14 04:04:07;;;;;;;5.38;5.18;;;;;;;17.24;100.00;101471.75;6012913;23;20030;-71
2022/07/14 04:06:34;;;;;;;5.38;5.07;;;;;;;17.03;100.00;101399.81;6028868;23;20027;-71
2022/07/14 04:09:00;;;;;;;6.50;6.20;;;;;;;15.55;100.00;101153.56;6022398;23;20046;-71
2022/07/14 04:11:27;;;;;;;5.10;4.90;;;;;;;17.25;100.00;101434.50;5992608;23;20043;-71
2022/07/14 04:13:54;;;;;;;6.15;5.85;;;;;;;17.27;100.00;101495.44;6021478;23;20274;-71
2022/07/14 04:16:20;;;;;;;5.80;5.50;;;;;;;17.00;100.00;101390.25;6024768;23;20159;-70
2022/07/14 04:18:47;;;;;;;5.22;5.03;;;;;;;17.00;100.00;101384.09;6022321;23;20101;-72
2022/07/14 04:21:13;;;;;;;5.20;5.00;;;;;;;17.23;100.00;101424.97;6022964;23;20039;-70
2022/07/14 04:23:40;;;;;;;5.82;5.53;;;;;;;17.24;100.00;101421.34;6027384;23;20046;-70
2022/07/14 04:26:07;;;;;;;5.80;5.53;;;;;;;17.02;100.00;101375.09;6028847;23;20393;-72
2022/07/14 04:28:34;;;;;;;5.97;5.68;;;;;;;17.13;100.00;101419.44;6026136;23;20284;-71
2022/07/14 04:31:00;;;;;;;6.47;6.18;;;;;;;17.15;100.00;101425.47;6021473;23;20015;-71
2022/07/14 04:33:26;;;;;;;5.10;4.90;;;;;;;17.09;100.00;101474.47;6029317;23;20082;-70
2022/07/14 04:35:53;;;;;;;6.60;6.30;;;;;;;16.98;100.00;101423.13;6020144;23;20089;-71
2022/07/14 04:38:20;;;;;;;5.50;5.20;;;;;;;17.17;100.00;101449.25;6027949;23;20064;-71
2022/07/14 04:40:48;;;;;;;5.28;5.07;;;;;;;17.23;100.00;101452.34;6029388;23;20276;-71
2022/07/14 04:43:17;;;;;;;5.50;5.22;;;;;;;16.82;100.00;101384.41;6015699;23;21229;-73
2022/07/14 04:45:48;;;;;;;5.68;5.28;;;;;;;17.26;100.00;101451.25;6002343;23;20211;-70
2022/07/14 04:48:15;;;;;;;6.25;5.95;;;;;;;17.11;100.00;101488.50;6016914;23;20026;-71
2022/07/14 04:53:27;;;;;;;5.57;5.05;;;;;;;17.10;100.00;101422.31;6021863;23;20560;-70
2022/07/14 04:55:53;;;;;;;6.90;6.60;;;;;;;17.17;100.00;101500.50;6029042;23;20054;-71
2022/07/14 04:58:20;;;;;;;5.40;5.10;;;;;;;17.34;100.00;101459.56;6029225;23;20070;-71
2022/07/14 05:00:46;;;;;;;5.13;4.93;;;;;;;17.42;100.00;101480.25;6037115;23;20081;-72
2022/07/14 05:03:13;;;;;;;5.28;5.07;;;;;;;17.38;100.00;101445.13;6029337;23;20034;-71
2022/07/14 05:05:40;;;;;;;5.25;5.05;;;;;;;17.18;100.00;101400.53;6038653;23;20082;-71
2022/07/14 05:08:06;;;;;;;6.40;6.10;;;;;;;17.60;100.00;101471.03;6029301;23;20071;-72
2022/07/14 05:10:33;;;;;;;5.28;5.03;;;;;;;17.67;100.00;101474.09;6037636;23;20019;-70
2022/07/14 05:12:59;;;;;;;6.07;5.78;;;;;;;17.60;100.00;101449.81;6026667;23;20028;-71
2022/07/14 05:15:26;;;;;;;5.25;5.05;;;;;;;17.75;100.00;101466.47;6034600;23;20026;-70
2022/07/14 05:17:52;;;;;;;6.43;6.13;;;;;;;17.86;100.00;101476.34;6034388;23;20078;-71
2022/07/14 05:20:19;;;;;;;5.43;5.22;;;;;;;17.77;100.00;101448.59;6030216;23;20085;-70
2022/07/14 05:22:45;;;;;;;5.65;5.35;;;;;;;18.17;100.00;101496.28;6021826;23;20015;-72
2022/07/14 05:25:12;;;;;;;6.03;5.72;;;;;;;18.38;100.00;101506.31;6043363;23;20049;-71
2022/07/14 05:27:39;;;;;;;5.10;4.90;;;;;;;18.71;97.33;101533.09;6027020;23;20011;-73
2022/07/14 05:30:07;;;;;;;6.00;5.70;;;;;;;19.56;94.36;101587.19;6001357;23;21889;-73
2022/07/14 05:32:38;;;;;;;5.82;5.47;;;;;;;21.11;83.02;101649.69;6030784;23;20027;-71
2022/07/14 05:35:05;;;;;;;6.82;6.53;;;;;;;21.33;75.25;101590.03;6036962;23;20333;-71
2022/07/14 05:37:32;;;;;;;6.40;5.82;;;;;;;22.16;72.28;101617.72;6031102;23;20041;-71
2022/07/14 05:39:58;;;;;;;7.00;6.60;;;;;;;20.53;75.45;101477.34;6037038;23;20497;-71
2022/07/14 05:42:25;;;;;;;5.88;5.47;;;;;;;20.03;77.88;101444.16;6013599;23;20030;-71
2022/07/14 05:44:51;;;;;;;6.85;6.45;;;;;;;19.86;80.26;101445.50;6032747;23;20066;-71
2022/07/14 05:47:18;;;;;;;5.30;5.10;;;;;;;19.69;80.99;101446.81;6039507;23;20431;-71
2022/07/14 05:49:45;;;;;;;6.68;6.32;;;;;;;18.82;84.64;101367.47;6010398;23;20023;-71
2022/07/14 05:52:15;;;;;;;5.80;5.45;;;;;;;18.89;85.10;101391.78;6024242;23;20141;-71
2022/07/14 05:54:41;;;;;;;5.40;5.20;;;;;;;18.75;86.07;101398.13;6010692;23;20029;-72
2022/07/14 05:57:13;;;;;;;5.90;5.60;;;;;;;18.60;87.41;101420.53;6026188;23;20086;-71
2022/07/14 05:59:39;;;;;;;5.80;5.50;;;;;;;18.97;85.57;101445.25;5980298;23;20105;-71
2022/07/14 06:02:12;;;;;;;;;;;;;;;19.57;84.02;101491.22;6025448;23;20459;-71
2022/07/14 06:04:38;;;;;;;5.53;5.22;;;;;;;19.62;81.95;101488.19;6003585;23;19923;-70
2022/07/14 06:07:07;;;;;;;6.53;6.22;;;;;;;19.71;81.81;101506.16;6031640;23;20424;-71
2022/07/14 06:09:38;;;;;;;5.88;5.57;;;;;;;19.78;81.16;101507.34;6025003;23;20015;-70
2022/07/14 06:12:09;;;;;;;6.97;6.63;;;;;;;19.50;82.10;101466.03;6023563;23;20201;-71
2022/07/14 06:14:36;;;;;;;5.30;5.10;;;;;;;19.21;81.72;101439.03;6005545;23;20033;-71
2022/07/14 06:17:03;;;;;;;6.85;6.55;;;;;;;19.23;82.66;101459.22;6026257;23;20023;-73
2022/07/14 06:19:29;;;;;;;5.60;5.40;;;;;;;19.27;82.13;101449.19;6030893;23;20257;-72
2022/07/14 06:21:56;;;;;;;6.03;5.72;;;;;;;19.34;83.48;101479.66;6021285;23;20273;-71
2022/07/14 06:24:24;;;;;;;5.82;5.53;;;;;;;19.50;83.12;101497.97;6020904;23;20031;-72
2022/07/14 06:26:51;;;;;;;7.03;6.55;;;;;;;19.51;82.53;101484.56;6023295;23;20010;-73
2022/07/14 06:29:20;;;;;;;7.40;5.47;;;;;;;19.43;82.16;101484.28;6033240;23;20015;-73
2022/07/14 06:31:46;;;;;;;5.57;5.28;;;;;;;19.18;82.33;101458.69;6031277;23;20034;-73
2022/07/14 06:34:13;;;;;;;5.55;5.35;;;;;;;19.32;83.24;101478.94;6027806;23;20007;-73
2022/07/14 06:36:39;;;;;;;5.43;5.22;;;;;;;19.10;83.26;101455.78;6002765;23;20402;-72
2022/07/14 06:39:06;;;;;;;6.93;6.60;;;;;;;19.30;83.14;101496.84;6022776;23;20499;-72
2022/07/14 06:41:32;;;;;;;5.60;5.30;;;;;;;19.51;82.06;101515.66;6029917;23;20010;-73
2022/07/14 06:43:59;;;;;;;5.28;5.07;;;;;;;19.37;81.70;101478.59;6020823;23;20539;-73
2022/07/14 06:46:27;;;;;;;5.55;5.35;;;;;;;19.60;81.51;101485.63;6031578;23;20211;-72
2022/07/14 06:48:54;;;;;;;6.53;6.22;;;;;;;19.89;79.09;101519.84;6026462;23;20031;-72
2022/07/14 06:51:21;;;;;;;6.13;5.60;;;;;;;19.99;77.48;101511.97;6025006;23;20052;-72
2022/07/14 06:53:47;;;;;;;5.38;5.15;;;;;;;20.06;77.23;101515.84;6022987;23;20117;-74
2022/07/14 06:56:14;;;;;;;5.53;5.22;;;;;;;19.79;77.56;101498.41;6009686;23;21038;-72
2022/07/14 06:58:40;;;;;;;5.25;5.05;;;;;;;19.04;80.09;101397.72;6015417;23;20425;-72
2022/07/14 07:01:07;;;;;;;4.90;4.70;;;;;;;19.59;78.49;101453.81;5981307;23;20153;-72
2022/07/14 07:03:34;;;;;;;5.50;5.20;;;;;;;19.77;77.25;101472.88;6030460;23;20011;-72
2022/07/14 07:08:46;;;;;;;5.25;4.95;;;;;;;19.91;78.17;101520.56;6020666;23;20440;-73
2022/07/14 07:11:13;;;;;;;5.60;5.40;;;;;;;20.00;74.87;101508.34;6026969;23;20272;-71
2022/07/14 07:13:39;;;;;;;5.50;5.30;;;;;;;20.61;74.21;101547.94;6023116;23;20475;-72
2022/07/14 07:16:08;;;;;;;6.07;5.68;;;;;;;20.27;72.97;101500.81;6025503;23;20392;-72
2022/07/14 07:18:35;;;;;;;5.30;5.10;;;;;;;20.19;73.44;101505.91;6026816;23;20023;-72
2022/07/14 07:21:03;;;;;;;5.50;5.10;;;;;;;20.16;75.11;101513.28;6028532;23;20011;-74
2022/07/14 07:23:30;;;;;;;5.03;4.82;;;;;;;20.58;73.71;101537.47;6025499;23;20018;-72
2022/07/14 07:25:57;;;;;;;7.25;6.95;;;;;;;20.28;72.91;101491.81;6026159;23;20039;-72
2022/07/14 07:28:23;;;;;;;5.82;5.30;;;;;;;20.66;73.04;101529.72;6032618;23;20076;-73
2022/07/14 07:30:53;;;;;;;6.30;6.00;;;;;;;20.30;73.02;101487.22;5998294;23;20034;-73
2022/07/14 07:33:20;;;;;;;5.80;5.32;;;;;;;20.54;72.72;101504.88;6027157;23;20044;-71
2022/07/14 07:35:46;;;;;;;5.43;5.22;;;;;;;20.58;71.42;101494.78;6027718;23;20337;-73
2022/07/14 07:38:13;;;;;;;5.55;5.32;;;;;;;20.89;71.21;101528.69;6022691;23;20030;-71
2022/07/14 07:40:39;;;;;;;5.43;5.22;;;;;;;20.96;70.68;101515.66;6005654;23;20098;-71
2022/07/14 07:43:06;;;;;;;6.75;6.35;;;;;;;21.00;70.26;101518.94;6016224;23;20010;-71
2022/07/14 07:45:32;;;;;;;5.63;5.32;;;;;;;20.75;70.06;101467.63;6016435;23;20405;-72
2022/07/14 07:48:03;;;;;;;6.43;6.13;;;;;;;20.74;70.23;101467.75;6023018;23;20198;-72
2022/07/14 07:50:30;;;;;;;5.53;5.22;;;;;;;20.66;70.32;101479.03;6024781;23;21506;-71
2022/07/14 07:52:56;;;;;;;6.78;6.45;;;;;;;20.89;71.87;101498.50;6017088;23;20469;-71
2022/07/14 07:55:23;;;;;;;5.32;5.13;;;;;;;20.95;70.89;101503.31;6031816;23;20471;-72
2022/07/14 07:57:53;;;;;;;6.43;6.13;;;;;;;20.83;69.11;101504.34;6026693;23;20030;-73
2022/07/14 08:00:20;;;;;;;5.97;5.68;;;;;;;21.18;69.51;101522.72;6033686;23;20394;-71
2022/07/14 08:02:49;;;;;;;5.15;4.95;;;;;;;21.12;68.48;101508.06;6019631;23;20033;-72
2022/07/14 08:05:18;;;;;;;5.35;5.15;;;;;;;21.34;64.54;101508.09;6045007;23;20022;-71
2022/07/14 08:08:07;;;;;;;6.65;6.35;;;;;;;21.35;64.69;101472.38;5964607;23;20016;-71
2022/07/14 08:10:38;;;;;;;5.90;5.40;;;;;;;21.89;63.78;101522.06;5995974;23;20035;-70
2022/07/14 08:13:05;;;;;;;6.10;5.80;;;;;;;21.59;61.06;101474.78;5995347;23;20238;-71
2022/07/14 08:15:32;;;;;;;5.32;5.13;;;;;;;22.06;62.80;101531.28;5996013;23;20381;-71
2022/07/14 08:17:59;;;;;;;6.45;6.15;;;;;;;21.73;58.85;101465.59;5996008;23;20449;-71
2022/07/14 08:20:26;;;;;;;5.40;5.20;;;;;;;22.01;57.41;101507.63;5998028;23;20023;-71
2022/07/14 08:22:52;;;;;;;6.20;5.90;;;;;;;22.29;55.41;101502.53;6016879;23;20051;-71
2022/07/14 08:25:19;;;;;;;5.43;5.22;;;;;;;21.95;57.43;101469.88;6004255;23;20053;-71
2022/07/14 08:27:45;;;;;;;5.30;5.10;;;;;;;21.16;56.57;101343.16;6014894;23;20465;-73
2022/07/14 08:30:13;;;;;;;5.30;5.10;;;;;;;22.15;56.39;101470.78;5998000;23;20061;-71
2022/07/14 08:32:41;;;;;;;5.47;5.25;;;;;;;22.13;56.55;101484.31;5992302;23;20484;-72
2022/07/14 08:35:10;;;;;;;5.60;5.30;;;;;;;22.27;53.96;101478.63;5996052;23;20086;-72
2022/07/14 08:37:38;;;;;;;5.22;5.03;;;;;;;21.66;49.58;101399.34;5995736;23;20070;-72
2022/07/14 08:40:07;;;;;;;6.63;6.32;;;;;;;21.83;51.59;101431.72;5997986;23;20063;-71
2022/07/14 08:42:35;;;;;;;5.80;5.50;;;;;;;21.83;54.67;101429.94;6000234;23;20508;-72
2022/07/14 08:45:10;;;;;;;7.05;6.70;;;;;;;21.97;55.16;101443.88;5996257;23;20018;-72
2022/07/14 08:47:37;;;;;;;5.90;5.60;;;;;;;22.48;53.32;101472.31;5996636;23;20038;-71
2022/07/14 08:50:07;;;;;;;6.97;6.68;;;;;;;23.07;53.82;101510.66;5992912;23;20431;-72
2022/07/14 08:52:34;;;;;;;5.75;5.45;;;;;;;23.17;51.47;101499.94;6015964;23;20461;-72
2022/07/14 08:55:00;;;;;;;7.63;6.85;;;;;;;22.57;46.62;101435.84;5998383;23;20101;-72
2022/07/14 08:57:27;;;;;;;6.82;6.30;;;;;;;22.32;49.04;101408.66;5992234;23;20055;-72
2022/07/14 08:59:54;;;;;;;6.90;6.60;;;;;;;22.32;47.21;101402.47;5997225;23;20034;-72
2022/07/14 09:02:21;;;;;;;5.50;5.30;;;;;;;22.78;48.00;101447.25;5993509;23;20135;-72
2022/07/14 09:04:48;;;;;;;5.78;5.47;;;;;;;22.73;48.26;101445.97;5988881;23;20069;-72
2022/07/14 09:07:37;;;;;;;5.35;5.15;;;;;;;22.88;45.80;101439.22;6023271;23;20018;-72
2022/07/14 09:10:10;;;;;;;6.90;6.50;;;;;;;23.12;45.01;101451.34;6020080;23;20044;-71
2022/07/14 09:12:38;;;;;;;5.20;5.00;;;;;;;22.40;43.76;101378.56;6002506;23;20023;-71
2022/07/14 09:18:00;;;;;;;6.28;5.88;;;;;;;23.44;46.58;101454.50;6020759;23;20025;-73
2022/07/14 09:20:29;;;;;;;5.50;5.30;;;;;;;23.70;46.04;101459.22;6027278;23;20079;-72
2022/07/14 09:22:57;;;;;;;6.93;6.53;;;;;;;24.14;44.77;101483.59;6014409;23;20171;-71
2022/07/14 09:25:26;;;;;;;5.60;5.30;;;;;;;23.15;44.19;101392.13;6029032;23;20199;-72
2022/07/14 09:27:54;;;;;;;7.00;6.70;;;;;;;23.53;45.86;101414.44;6012703;23;20022;-72
2022/07/14 09:30:21;;;;;;;5.55;5.25;;;;;;;23.61;43.53;101407.31;6030780;23;20037;-72
2022/07/14 09:32:56;;;;;;;6.20;5.80;;;;;;;23.45;43.39;101386.56;6026935;23;20051;-71
2022/07/14 09:35:36;;;;;;;5.32;5.03;;;;;;;23.40;38.19;101406.72;6002293;23;20026;-72
2022/07/14 09:38:17;;;;;;;7.28;6.78;;;;;;;23.36;39.40;101379.38;6018197;23;20022;-72
2022/07/14 09:40:45;;;;;;;5.40;5.20;;;;;;;22.75;40.58;101304.88;6025961;23;20026;-72
2022/07/14 09:43:15;;;;;;;6.95;6.38;;;;;;;22.74;43.19;101333.47;6018658;23;20171;-71
2022/07/14 09:45:45;;;;;;;5.40;5.20;;;;;;;22.87;43.75;101351.88;6001126;23;20689;-72
2022/07/14 09:48:18;;;;;;;5.47;5.18;;;;;;;23.31;43.43;101395.03;6025003;23;20014;-71
2022/07/14 09:50:45;;;;;;;5.20;5.00;;;;;;;23.45;39.98;101399.94;6026417;23;20023;-73
2022/07/14 09:53:25;;;;;;;5.60;5.30;;;;;;;22.79;42.59;101341.91;6020158;23;20472;-72
2022/07/14 09:56:00;;;;;;;6.57;5.97;;;;;;;22.94;42.94;101357.50;6008015;23;20026;-72
2022/07/14 09:58:51;;;;;;;5.43;5.22;;;;;;;23.39;41.89;101397.81;6016623;23;20301;-71
2022/07/14 10:01:19;;;;;;;5.35;5.15;;;;;;;23.29;38.82;101359.53;6031034;23;20011;-72
2022/07/14 10:03:48;;;;;;;5.70;5.40;;;;;;;23.28;39.04;101368.56;6022311;23;20094;-72
2022/07/14 10:06:15;;;;;;;5.20;5.00;;;;;;;22.94;37.83;101354.84;6021881;23;20820;-72
2022/07/14 10:09:04;;;;;;;7.15;6.85;;;;;;;22.57;41.29;101324.34;6023928;23;20037;-72
2022/07/14 10:11:32;;;;;;;5.90;5.60;;;;;;;22.78;42.30;101334.84;5990433;23;20027;-72
2022/07/14 10:13:59;;;;;;;6.95;6.65;;;;;;;22.73;41.84;101280.09;6023744;23;20032;-72
2022/07/14 10:16:34;;;;;;;5.50;5.10;;;;;;;23.06;40.02;101343.00;6000423;23;20012;-72
2022/07/14 10:19:02;;;;;;;6.68;6.38;;;;;;;22.88;39.99;101343.69;6021287;23;20117;-72
2022/07/14 10:21:37;;;;;;;5.88;5.30;;;;;;;22.93;41.51;101345.09;6029101;23;20476;-71
2022/07/14 10:24:05;;;;;;;6.68;6.38;;;;;;;22.77;38.86;101314.47;6021347;23;20034;-73
2022/07/14 10:26:32;;;;;;;5.50;5.22;;;;;;;22.55;39.44;101314.75;6050231;23;20011;-71
2022/07/14 10:28:59;;;;;;;5.70;5.40;;;;;;;22.69;36.43;101343.75;6035434;23;20089;-72
2022/07/14 10:32:09;;;;;;;5.40;5.20;;;;;;;22.86;38.49;101328.78;6025833;23;20054;-73
2022/07/14 10:34:46;;;;;;;5.85;5.57;;;;;;;22.96;39.24;101324.25;6020742;23;20062;-72
2022/07/14 10:37:27;;;;;;;5.68;5.38;;;;;;;22.47;39.26;101201.31;5999752;23;20267;-72
2022/07/14 10:40:03;;;;;;;5.80;5.50;;;;;;;23.83;35.72;101378.47;6017771;23;20086;-72
2022/07/14 10:43:06;;;;;;;5.30;5.10;;;;;;;24.31;37.79;101414.84;6028296;23;20329;-72
2022/07/14 10:45:51;;;;;;;5.65;5.35;;;;;;;24.23;36.48;101409.41;5996699;23;20043;-73
2022/07/14 10:48:32;;;;;;;5.23;5.03;;;;;;;24.56;37.50;101410.59;6026758;23;20021;-72
2022/07/14 10:51:14;;;;;;;6.93;6.57;;;;;;;23.79;35.36;101339.56;6022181;23;20583;-72
2022/07/14 10:54:04;;;;;;;5.50;5.30;;;;;;;23.46;36.23;101315.06;6027686;23;20018;-72
2022/07/14 10:57:19;;;;;;;6.50;6.07;;;;;;;23.77;36.26;101342.38;6020886;23;20010;-72
2022/07/14 10:59:47;;;;;;;5.50;5.30;;;;;;;23.24;35.02;101219.88;6026269;23;20037;-73
2022/07/14 11:02:14;;;;;;;5.50;5.20;;;;;;;24.05;34.99;101342.34;6018390;23;20014;-72
2022/07/14 11:05:00;;;;;;;6.03;5.72;;;;;;;23.77;35.55;101333.47;5999957;23;20078;-71
2022/07/14 11:07:43;;;;;;;5.78;5.47;;;;;;;22.92;36.15;101198.91;6018144;23;20251;-72
2022/07/14 11:10:19;;;;;;;16.95;16.05;;;;;;;22.76;37.21;101138.81;5971980;23;20397;-74
2022/07/14 11:13:06;;;;;;;5.85;5.55;;;;;;;24.05;35.11;101327.09;5966733;23;20058;-73
2022/07/14 11:15:40;;;;;;;5.60;5.30;;;;;;;24.03;38.65;101323.72;6030540;23;20029;-73
2022/07/14 11:18:20;;;;;;;5.70;5.50;;;;;;;24.61;37.11;101359.97;6027928;23;20038;-72
2022/07/14 11:21:08;;;;;;;5.40;5.20;;;;;;;24.86;35.96;101377.13;6024248;23;20039;-74
2022/07/14 11:23:46;;;;;;;5.25;5.05;;;;;;;24.41;35.22;101319.03;6031628;23;20078;-73
2022/07/14 11:26:31;;;;;;;5.70;5.40;;;;;;;24.24;36.68;101327.97;6024117;23;20030;-73
2022/07/14 11:29:05;;;;;;;6.72;6.43;;;;;;;24.26;36.26;101312.56;6024512;23;20023;-72
2022/07/14 11:31:52;;;;;;;5.68;5.38;;;;;;;24.13;34.92;101301.38;6000895;23;20090;-73
2022/07/14 11:37:07;;;;;;;6.15;5.85;;;;;;;24.26;35.65;101348.25;5983584;23;20465;-73
2022/07/14 11:39:54;;;;;;;6.97;6.68;;;;;;;24.35;34.47;101361.75;5998629;23;20027;-72
2022/07/14 11:42:20;;;;;;;5.50;5.30;;;;;;;24.44;34.90;101361.66;6033172;23;20119;-71
2022/07/14 11:44:49;;;;;;;5.68;5.38;;;;;;;24.25;36.78;101314.38;5995266;23;20053;-71